createdAt,value
2022-09-03T00:10:03.947Z,17.00
2022-09-03T00:25:13.185Z,16.97
2022-09-03T00:40:32.331Z,17.03
2022-09-03T00:55:34.140Z,17.12
2022-09-03T01:11:02.859Z,17.05
2022-09-03T01:26:23.383Z,16.90
2022-09-03T01:42:20.791Z,16.57
2022-09-03T01:57:48.728Z,16.52
2022-09-03T02:12:56.980Z,16.46
2022-09-03T02:28:00.420Z,16.33
2022-09-03T02:43:06.274Z,16.34
2022-09-03T02:58:09.100Z,16.31
2022-09-03T03:13:11.766Z,16.23
2022-09-03T03:28:14.145Z,16.34
2022-09-03T03:43:16.133Z,16.56
2022-09-03T03:58:18.022Z,16.87
2022-09-03T04:13:20.051Z,17.20
2022-09-03T04:28:24.467Z,17.51
2022-09-03T04:43:28.872Z,18.36
2022-09-03T04:58:31.373Z,18.92
2022-09-03T05:13:35.069Z,19.04
2022-09-03T05:28:39.894Z,19.82
2022-09-03T05:43:42.721Z,19.91
2022-09-03T05:58:47.878Z,20.40
2022-09-03T06:13:50.105Z,21.97
2022-09-03T06:28:55.237Z,22.58
2022-09-03T06:44:03.678Z,22.87
2022-09-03T06:59:14.089Z,23.06
2022-09-03T07:14:20.376Z,23.66
2022-09-03T07:29:22.332Z,24.52
2022-09-03T07:44:24.722Z,24.78
2022-09-03T07:59:26.584Z,25.49
2022-09-03T08:14:30.615Z,25.99
2022-09-03T08:29:32.547Z,27.16
2022-09-03T08:44:51.957Z,26.45
2022-09-03T09:00:00.219Z,26.39
2022-09-03T09:15:19.229Z,27.06
2022-09-03T09:30:21.207Z,27.88
2022-09-03T09:45:23.680Z,28.77
2022-09-03T10:00:25.693Z,27.27
2022-09-03T10:15:49.161Z,27.23
2022-09-03T10:31:05.486Z,26.83
2022-09-03T10:46:23.852Z,26.82
2022-09-03T11:01:55.182Z,27.35
2022-09-03T11:17:06.350Z,26.59
2022-09-03T11:32:43.380Z,26.67
2022-09-03T11:47:47.279Z,25.75
2022-09-03T12:02:59.273Z,25.39
2022-09-03T12:18:20.695Z,25.33
2022-09-03T12:33:23.763Z,24.94
2022-09-03T12:48:26.474Z,24.61
2022-09-03T13:03:54.937Z,24.59
2022-09-03T13:19:17.785Z,24.34
2022-09-03T13:34:32.100Z,24.26
2022-09-03T13:50:12.358Z,24.13
2022-09-03T14:05:24.247Z,24.11
2022-09-03T14:20:30.085Z,23.90
2022-09-03T14:35:58.674Z,23.67
2022-09-03T14:51:45.267Z,23.53
2022-09-03T15:07:23.444Z,23.28
2022-09-03T15:22:53.572Z,23.23
2022-09-03T15:38:14.440Z,23.00
2022-09-03T15:53:42.173Z,22.58
2022-09-03T16:08:50.647Z,22.27
2022-09-03T16:24:10.876Z,22.01
2022-09-03T16:39:21.705Z,21.86
2022-09-03T16:55:06.805Z,21.80
2022-09-03T17:10:14.837Z,21.14
2022-09-03T17:25:45.272Z,20.99
2022-09-03T17:41:22.507Z,20.70
2022-09-03T17:56:31.622Z,20.15
2022-09-03T18:11:41.182Z,19.37
2022-09-03T18:27:15.069Z,18.34
2022-09-03T18:42:45.103Z,17.30
2022-09-03T18:58:08.220Z,16.56
2022-09-03T19:13:54.212Z,16.07
2022-09-03T19:29:26.347Z,15.63
2022-09-03T19:45:06.302Z,15.64
2022-09-03T20:00:32.592Z,15.25
2022-09-03T20:15:44.779Z,14.62
2022-09-03T20:31:22.400Z,14.69
2022-09-03T20:46:40.292Z,14.70
2022-09-03T21:02:06.145Z,14.58
2022-09-03T21:17:29.332Z,14.25
2022-09-03T21:32:57.172Z,14.10
2022-09-03T21:48:14.389Z,14.10
2022-09-03T22:03:16.459Z,14.10
2022-09-03T22:18:29.266Z,14.16
2022-09-03T22:34:15.615Z,13.83
2022-09-03T22:49:26.329Z,13.68
2022-09-03T23:05:06.544Z,13.67
2022-09-03T23:20:21.241Z,13.49
2022-09-03T23:35:30.627Z,13.70
2022-09-03T23:50:48.003Z,13.65
